Time;durP1;ratioP1;P1;durP2;ratioP2;P2;SDS_P1;SDS_P2;PMS_P1;PMS_P2;Temp;Humidity;BMP_temperature;BMP_pressure;BME280_temperature;BME280_humidity;BME280_pressure;Samples;Min_cycle;Max_cycle;Signal;HPM_P1;HPM_P2
2023/03/07 00:00:44;;;;;;;6.35;4.95;;;;;;;2.82;100.00;99560.25;6054210;23;20093;-75
2023/03/07 00:03:13;;;;;;;4.70;4.40;;;;;;;2.90;100.00;99575.53;6108158;23;20467;-76
2023/03/07 00:05:40;;;;;;;5.13;4.63;;;;;;;2.39;100.00;99482.47;6059781;23;20595;-75
2023/03/07 00:08:06;;;;;;;4.63;4.22;;;;;;;2.90;100.00;99566.00;6108003;23;20109;-74
2023/03/07 00:10:32;;;;;;;5.30;4.80;;;;;;;3.23;100.00;99607.06;6056427;23;20294;-77
2023/03/07 00:12:59;;;;;;;5.25;4.88;;;;;;;3.21;100.00;99611.47;6101364;23;20617;-74
2023/03/07 00:15:26;;;;;;;5.03;4.72;;;;;;;3.20;100.00;99618.38;6061529;23;20344;-75
2023/03/07 00:17:52;;;;;;;4.18;3.80;;;;;;;3.25;100.00;99610.44;6100974;23;20087;-75
2023/03/07 00:20:18;;;;;;;4.03;3.83;;;;;;;2.59;100.00;99506.78;6075055;23;20375;-74
2023/03/07 00:22:45;;;;;;;3.58;3.42;;;;;;;2.70;100.00;99530.50;6051220;23;20026;-74
2023/03/07 00:25:13;;;;;;;6.60;3.75;;;;;;;3.09;100.00;99586.88;6080953;23;20085;-74
2023/03/07 00:27:40;;;;;;;7.38;4.82;;;;;;;3.28;100.00;99602.53;6105944;23;20022;-73
2023/03/07 00:30:09;;;;;;;4.20;3.80;;;;;;;3.12;100.00;99573.75;6053677;23;20040;-75
2023/03/07 00:32:35;;;;;;;4.90;3.72;;;;;;;3.28;100.00;99604.28;6079579;23;20014;-74
2023/03/07 00:35:01;;;;;;;5.13;4.47;;;;;;;3.25;100.00;99599.19;6051214;23;20030;-75
2023/03/07 00:37:29;;;;;;;3.88;3.67;;;;;;;2.92;100.00;99540.03;6078566;23;20018;-73
2023/03/07 00:39:56;;;;;;;3.95;3.75;;;;;;;2.86;100.00;99535.09;6080528;23;20090;-76
2023/03/07 00:42:22;;;;;;;4.78;4.45;;;;;;;3.24;100.00;99590.59;6075723;23;20032;-75
2023/03/07 00:44:48;;;;;;;4.63;4.32;;;;;;;3.24;100.00;99600.97;6051693;23;20027;-74
2023/03/07 00:47:15;;;;;;;5.10;3.60;;;;;;;3.24;100.00;99588.00;6101885;23;20092;-76
2023/03/07 00:49:41;;;;;;;3.30;3.10;;;;;;;2.83;100.00;99523.09;6075909;23;20033;-76
2023/03/07 00:52:08;;;;;;;4.45;4.07;;;;;;;2.98;100.00;99545.81;6049357;23;20087;-73
2023/03/07 00:54:34;;;;;;;4.60;4.20;;;;;;;2.07;100.00;99394.88;6103647;23;20262;-74
2023/03/07 00:57:00;;;;;;;4.45;4.10;;;;;;;2.98;100.00;99544.97;6078983;23;20030;-76
2023/03/07 00:59:27;;;;;;;4.70;4.38;;;;;;;3.26;100.00;99578.41;6103347;23;20103;-74
2023/03/07 01:01:53;;;;;;;3.65;3.45;;;;;;;2.95;100.00;99537.31;6056767;23;20064;-77
2023/03/07 01:04:20;;;;;;;4.55;4.25;;;;;;;2.91;100.00;99528.00;6108401;23;20034;-75
2023/03/07 01:06:46;;;;;;;3.88;3.53;;;;;;;3.25;100.00;99576.72;6078926;23;20670;-76
2023/03/07 01:09:13;;;;;;;4.43;4.03;;;;;;;2.96;100.00;99526.88;6106653;23;20053;-74
2023/03/07 01:11:39;;;;;;;4.45;4.15;;;;;;;2.72;100.00;99495.00;6078989;23;20030;-72
2023/03/07 01:14:06;;;;;;;4.15;3.88;;;;;;;2.96;100.00;99531.22;6054160;23;20018;-77
2023/03/07 01:16:35;;;;;;;4.47;4.20;;;;;;;3.25;100.00;99574.13;6109087;23;20026;-74
2023/03/07 01:19:05;;;;;;;5.70;5.38;;;;;;;3.18;100.00;99552.78;6080173;23;20237;-77
2023/03/07 01:21:37;;;;;;;4.35;4.15;;;;;;;3.10;100.00;99557.44;6050985;23;20077;-76
2023/03/07 01:24:05;;;;;;;4.00;3.80;;;;;;;2.89;100.00;99534.97;6083277;23;20125;-75
2023/03/07 01:26:33;;;;;;;4.05;3.85;;;;;;;3.25;100.00;99571.56;6108091;23;20519;-78
2023/03/07 01:29:03;;;;;;;4.00;3.78;;;;;;;3.25;100.00;99588.84;6081064;23;20025;-74
2023/03/07 01:31:31;;;;;;;4.03;3.80;;;;;;;2.77;100.00;99500.88;6026943;23;20006;-74
2023/03/07 01:33:58;;;;;;;3.50;3.30;;;;;;;2.80;100.00;99498.13;6084367;23;20034;-75
2023/03/07 01:36:28;;;;;;;4.10;3.80;;;;;;;2.48;100.00;99436.41;6106890;23;20633;-76
2023/03/07 01:39:05;;;;;;;4.03;3.80;;;;;;;3.17;100.00;99566.66;6056613;23;20191;-76
2023/03/07 01:41:33;;;;;;;3.83;3.63;;;;;;;3.20;100.00;99556.16;6107771;23;20018;-76
2023/03/07 01:44:04;;;;;;;3.63;3.45;;;;;;;3.23;100.00;99563.00;6086229;23;20028;-76
2023/03/07 01:46:41;;;;;;;4.93;4.18;;;;;;;3.12;100.00;99540.06;6106832;23;20014;-75
2023/03/07 01:49:14;;;;;;;3.40;3.20;;;;;;;3.16;100.00;99543.38;6083956;23;20642;-76
2023/03/07 01:51:46;;;;;;;3.80;3.60;;;;;;;3.24;100.00;99546.50;6105903;23;20017;-76
2023/03/07 01:54:16;;;;;;;4.97;4.15;;;;;;;3.19;100.00;99523.38;6064940;23;20045;-75
2023/03/07 01:56:43;;;;;;;3.88;3.67;;;;;;;2.70;100.00;99457.13;6110781;23;20029;-74
2023/03/07 01:59:11;;;;;;;3.80;3.60;;;;;;;2.51;100.00;99421.59;6064685;23;20097;-73
2023/03/07 02:01:37;;;;;;;4.20;3.80;;;;;;;3.30;100.00;99532.47;6107251;23;20248;-74
2023/03/07 02:04:14;;;;;;;3.22;3.13;;;;;;;3.30;100.00;99524.69;6052597;23;20038;-74
2023/03/07 02:06:40;;;;;;;3.22;3.13;;;;;;;3.27;100.00;99515.28;6103498;23;20158;-74
2023/03/07 02:09:14;;;;;;;3.00;2.90;;;;;;;3.27;100.00;99517.88;6064349;23;20026;-74
2023/03/07 02:11:43;;;;;;;3.33;3.13;;;;;;;3.09;100.00;99480.59;6106753;23;20177;-74
2023/03/07 02:14:10;;;;;;;3.58;3.38;;;;;;;3.06;100.00;99466.91;6052952;23;20058;-72
2023/03/07 02:16:37;;;;;;;3.63;3.42;;;;;;;3.31;100.00;99505.63;6049044;23;20020;-74
2023/03/07 02:19:29;;;;;;;3.80;3.60;;;;;;;2.80;100.00;99423.00;6079510;23;20259;-75
2023/03/07 02:22:08;;;;;;;3.50;3.30;;;;;;;3.32;100.00;99502.97;6106507;23;20028;-76
2023/03/07 02:24:44;;;;;;;4.05;3.80;;;;;;;2.88;100.00;99434.81;6081895;23;20209;-74
2023/03/07 02:27:12;;;;;;;3.67;3.42;;;;;;;3.30;100.00;99496.16;6109553;23;20030;-77
2023/03/07 02:29:39;;;;;;;3.05;2.95;;;;;;;3.10;100.00;99469.31;6084250;23;20050;-75
2023/03/07 02:32:06;;;;;;;4.20;3.92;;;;;;;3.19;100.00;99468.94;6105163;23;20061;-77
2023/03/07 02:34:33;;;;;;;3.85;3.65;;;;;;;3.33;100.00;99483.09;6067350;23;20058;-73
2023/03/07 02:37:08;;;;;;;3.13;2.92;;;;;;;2.62;100.00;99374.53;6109817;23;20024;-74
2023/03/07 02:39:35;;;;;;;4.05;3.65;;;;;;;3.01;100.00;99428.22;6082059;23;20033;-75
2023/03/07 02:42:07;;;;;;;3.85;3.65;;;;;;;2.63;100.00;99371.06;6026568;23;20053;-77
2023/03/07 02:44:33;;;;;;;3.95;3.65;;;;;;;3.38;100.00;99469.00;6106835;23;20016;-77
2023/03/07 02:47:00;;;;;;;3.42;3.30;;;;;;;3.19;100.00;99455.97;6080434;23;20378;-75
2023/03/07 02:49:26;;;;;;;3.47;3.30;;;;;;;3.33;100.00;99468.34;6081816;23;20017;-77
2023/03/07 02:51:56;;;;;;;3.83;3.63;;;;;;;3.24;100.00;99441.97;6081796;23;20461;-76
2023/03/07 02:54:24;;;;;;;3.40;3.10;;;;;;;3.34;100.00;99456.22;6082068;23;20274;-76
2023/03/07 02:56:51;;;;;;;3.70;3.40;;;;;;;2.77;100.00;99370.50;6053659;23;20321;-77
2023/03/07 02:59:17;;;;;;;3.92;3.72;;;;;;;3.34;100.00;99453.63;6106973;23;20260;-78
2023/03/07 03:01:45;;;;;;;5.25;3.90;;;;;;;3.19;100.00;99424.84;6059240;23;20203;-77
2023/03/07 03:04:11;;;;;;;3.45;3.33;;;;;;;3.37;100.00;99448.34;6084183;23;20037;-79
2023/03/07 03:06:37;;;;;;;4.10;3.80;;;;;;;3.07;100.00;99396.03;6081178;23;20484;-76
2023/03/07 03:09:04;;;;;;;4.05;3.75;;;;;;;3.12;100.00;99400.09;6107498;23;20337;-77
2023/03/07 03:11:30;;;;;;;4.28;3.97;;;;;;;3.09;100.00;99402.84;6034334;23;20026;-77
2023/03/07 03:13:57;;;;;;;4.25;3.95;;;;;;;2.92;100.00;99361.22;6108412;23;20035;-76
2023/03/07 03:16:23;;;;;;;3.72;3.53;;;;;;;3.47;100.00;99461.72;6050304;23;20388;-75
2023/03/07 03:18:50;;;;;;;4.57;4.10;;;;;;;3.06;100.00;99378.78;6105462;23;20095;-76
2023/03/07 03:21:16;;;;;;;3.35;3.15;;;;;;;3.43;100.00;99439.41;6037959;23;20006;-77
2023/03/07 03:23:43;;;;;;;4.05;3.83;;;;;;;3.13;100.00;99395.78;6108262;23;20028;-76
2023/03/07 03:26:10;;;;;;;4.07;3.78;;;;;;;3.39;100.00;99418.00;6078046;23;20029;-77
2023/03/07 03:28:38;;;;;;;4.10;3.80;;;;;;;3.45;100.00;99435.88;6026303;23;20041;-77
2023/03/07 03:31:07;;;;;;;3.78;3.58;;;;;;;3.45;100.00;99438.47;6104158;23;20461;-77
2023/03/07 03:33:35;;;;;;;4.97;4.65;;;;;;;3.05;100.00;99359.81;6079651;23;20013;-76
2023/03/07 03:36:08;;;;;;;3.88;3.58;;;;;;;2.47;100.00;99269.03;6080435;23;20077;-75
2023/03/07 03:38:34;;;;;;;5.22;4.75;;;;;;;3.22;100.00;99384.16;6079902;23;20060;-75
2023/03/07 03:41:06;;;;;;;4.45;4.10;;;;;;;3.33;100.00;99402.69;6107617;23;20103;-74
2023/03/07 03:43:33;;;;;;;4.13;3.92;;;;;;;3.43;100.00;99419.53;6062302;23;20040;-78
2023/03/07 03:46:00;;;;;;;4.18;3.83;;;;;;;3.42;100.00;99436.00;6103361;23;20046;-76
2023/03/07 03:48:26;;;;;;;4.72;4.40;;;;;;;3.11;100.00;99369.91;6053972;23;20725;-75
2023/03/07 03:51:08;;;;;;;3.95;3.72;;;;;;;3.39;100.00;99397.25;6103237;23;20037;-76
2023/03/07 03:53:36;;;;;;;3.47;3.28;;;;;;;2.50;100.00;99271.47;6051037;23;20039;-74
2023/03/07 03:56:08;;;;;;;4.18;3.97;;;;;;;3.33;100.00;99424.28;6077775;23;20063;-76
2023/03/07 03:58:34;;;;;;;4.38;4.10;;;;;;;3.37;100.00;99407.69;6048827;23;20573;-75
2023/03/07 04:01:04;;;;;;;3.85;3.53;;;;;;;2.94;100.00;99338.69;6055793;23;20010;-74
2023/03/07 04:03:33;;;;;;;4.13;3.83;;;;;;;2.96;100.00;99344.63;6081503;23;20021;-75
2023/03/07 04:06:04;;;;;;;5.05;4.32;;;;;;;2.83;100.00;99346.91;6054574;23;20025;-74
2023/03/07 04:08:32;;;;;;;3.90;3.70;;;;;;;2.90;100.00;99337.13;6082744;23;20104;-77
2023/03/07 04:10:59;;;;;;;4.82;4.43;;;;;;;3.26;100.00;99394.31;6055340;23;20354;-73
2023/03/07 04:13:26;;;;;;;3.20;3.10;;;;;;;3.19;100.00;99395.50;6050335;23;20018;-77
2023/03/07 04:15:55;;;;;;;3.72;3.35;;;;;;;3.20;100.00;99381.63;6102155;23;20053;-76
2023/03/07 04:18:23;;;;;;;4.10;3.83;;;;;;;3.21;100.00;99385.91;6078434;23;20022;-76
2023/03/07 04:20:51;;;;;;;4.10;3.80;;;;;;;3.22;100.00;99374.63;6084997;23;20020;-77
2023/03/07 04:23:19;;;;;;;4.22;3.92;;;;;;;2.94;100.00;99333.50;6053443;23;20020;-76
2023/03/07 04:25:47;;;;;;;3.95;3.67;;;;;;;3.23;100.00;99376.31;6049064;23;20708;-76
2023/03/07 04:28:15;;;;;;;3.65;3.45;;;;;;;2.89;100.00;99327.69;6106239;23;20268;-76
2023/03/07 04:30:41;;;;;;;3.92;3.67;;;;;;;3.07;100.00;99349.38;6052002;23;20306;-76
2023/03/07 04:33:08;;;;;;;4.63;4.32;;;;;;;3.17;100.00;99364.47;6095238;23;20559;-77
2023/03/07 04:35:34;;;;;;;4.30;4.10;;;;;;;3.23;100.00;99362.50;6082251;23;20382;-76
2023/03/07 04:38:01;;;;;;;4.70;4.30;;;;;;;2.90;100.00;99303.44;6107797;23;20030;-75
2023/03/07 04:40:30;;;;;;;4.18;3.88;;;;;;;2.84;100.00;99296.78;6057812;23;20430;-78
2023/03/07 04:42:57;;;;;;;4.65;4.25;;;;;;;3.02;100.00;99321.06;6108970;23;20021;-75
2023/03/07 04:45:23;;;;;;;4.93;4.55;;;;;;;2.63;100.00;99258.84;6056481;23;20038;-75
2023/03/07 04:47:50;;;;;;;5.82;4.47;;;;;;;2.98;100.00;99298.78;6078749;23;20240;-77
2023/03/07 04:50:17;;;;;;;8.48;6.45;;;;;;;3.27;100.00;99357.13;6076763;23;20029;-77
2023/03/07 04:52:46;;;;;;;4.35;4.10;;;;;;;3.27;100.00;99344.16;6103841;23;20024;-75
2023/03/07 04:55:13;;;;;;;5.15;4.78;;;;;;;2.83;100.00;99286.47;6076820;23;20083;-77
2023/03/07 04:57:40;;;;;;;4.82;4.43;;;;;;;2.98;100.00;99291.00;6105435;23;20053;-75
2023/03/07 05:00:08;;;;;;;4.10;3.80;;;;;;;2.82;100.00;99264.06;6054780;23;20033;-74
2023/03/07 05:02:35;;;;;;;4.68;4.38;;;;;;;3.27;100.00;99349.34;6059054;23;20063;-75
2023/03/07 05:05:03;;;;;;;4.95;4.50;;;;;;;2.63;100.00;99238.13;6105514;23;20028;-76
2023/03/07 05:07:31;;;;;;;4.07;3.88;;;;;;;2.85;100.00;99267.38;6084499;23;20087;-75
2023/03/07 05:09:57;;;;;;;4.10;3.88;;;;;;;3.29;100.00;99328.56;6109277;23;20036;-77
2023/03/07 05:12:24;;;;;;;3.85;3.50;;;;;;;3.00;100.00;99291.75;6059464;23;20108;-77
2023/03/07 05:14:50;;;;;;;5.95;3.92;;;;;;;2.83;100.00;99252.78;6111368;23;20028;-77
2023/03/07 05:17:18;;;;;;;8.45;5.10;;;;;;;3.28;100.00;99324.25;6060185;23;20026;-75
2023/03/07 05:19:45;;;;;;;4.13;3.83;;;;;;;3.05;100.00;99291.56;6108906;23;20021;-76
2023/03/07 05:22:11;;;;;;;4.53;4.22;;;;;;;3.25;100.00;99314.88;6035114;23;20088;-76
2023/03/07 05:24:37;;;;;;;3.78;3.58;;;;;;;2.88;100.00;99256.03;6107922;23;20429;-74
2023/03/07 05:27:04;;;;;;;7.10;5.13;;;;;;;2.99;100.00;99265.03;6084629;23;20047;-76
2023/03/07 05:29:31;;;;;;;3.50;3.30;;;;;;;3.11;100.00;99293.91;6111615;23;20050;-76
2023/03/07 05:31:57;;;;;;;4.60;4.25;;;;;;;2.92;100.00;99265.34;6058780;23;20254;-76
2023/03/07 05:34:24;;;;;;;4.78;4.43;;;;;;;3.23;100.00;99319.28;6084436;23;20026;-78
2023/03/07 05:36:50;;;;;;;5.45;5.10;;;;;;;2.04;100.00;99106.00;6083561;23;20087;-78
2023/03/07 05:39:16;;;;;;;4.85;4.55;;;;;;;2.61;100.00;99212.28;6103999;23;20033;-75
2023/03/07 05:41:43;;;;;;;4.75;4.10;;;;;;;3.24;100.00;99313.19;6030370;23;20057;-77
2023/03/07 05:44:10;;;;;;;4.53;4.25;;;;;;;3.23;100.00;99308.06;6112316;23;20236;-77
2023/03/07 05:46:36;;;;;;;3.78;3.47;;;;;;;3.20;100.00;99314.22;6079528;23;20038;-75
2023/03/07 05:49:02;;;;;;;4.75;4.38;;;;;;;3.22;100.00;99303.78;6053082;23;20038;-76
2023/03/07 05:51:29;;;;;;;5.18;4.65;;;;;;;3.20;100.00;99320.25;6111912;23;20413;-74
2023/03/07 05:53:55;;;;;;;4.50;4.25;;;;;;;2.73;100.00;99221.28;6082813;23;20022;-77
2023/03/07 05:56:21;;;;;;;4.63;4.32;;;;;;;3.24;100.00;99310.59;6108401;23;20021;-75
2023/03/07 05:58:48;;;;;;;5.47;4.20;;;;;;;3.24;100.00;99308.00;6027414;23;20026;-77
2023/03/07 06:01:14;;;;;;;4.20;4.00;;;;;;;2.76;100.00;99226.31;6110149;23;20119;-77
2023/03/07 06:03:42;;;;;;;3.90;3.70;;;;;;;3.28;100.00;99317.31;6058027;23;20019;-76
2023/03/07 06:06:11;;;;;;;5.57;4.00;;;;;;;2.69;100.00;99209.38;6106963;23;20021;-79
2023/03/07 06:08:37;;;;;;;4.30;4.00;;;;;;;3.17;100.00;99285.84;6082821;23;20179;-77
2023/03/07 06:11:04;;;;;;;5.43;4.63;;;;;;;2.02;100.00;99101.81;6083715;23;20021;-78
2023/03/07 06:13:30;;;;;;;5.03;4.63;;;;;;;3.19;100.00;99287.47;6083590;23;20039;-76
2023/03/07 06:15:57;;;;;;;4.75;4.47;;;;;;;3.30;100.00;99312.06;6108885;23;20625;-77
2023/03/07 06:18:24;;;;;;;4.43;4.22;;;;;;;3.30;100.00;99294.75;6081451;23;20374;-77
2023/03/07 06:20:56;;;;;;;5.85;4.95;;;;;;;3.33;100.00;99297.22;6083102;23;20084;-75
2023/03/07 06:23:24;;;;;;;4.07;3.88;;;;;;;3.38;100.00;99302.19;6066524;23;20034;-75
2023/03/07 06:25:50;;;;;;;4.82;3.55;;;;;;;3.15;100.00;99267.78;6109894;23;20268;-74
2023/03/07 06:28:17;;;;;;;5.30;3.97;;;;;;;3.43;100.00;99315.81;6082497;23;20033;-73
2023/03/07 06:30:43;;;;;;;4.80;4.45;;;;;;;1.84;100.00;99037.00;6108935;23;20714;-72
2023/03/07 06:33:10;;;;;;;4.70;4.28;;;;;;;3.37;100.00;99295.34;6061929;23;20084;-75
2023/03/07 06:35:40;;;;;;;5.18;4.47;;;;;;;3.32;100.00;99271.34;6106587;23;20679;-75
2023/03/07 06:38:07;;;;;;;4.85;4.45;;;;;;;3.36;100.00;99278.06;6060925;23;20067;-71
2023/03/07 06:40:33;;;;;;;4.45;4.20;;;;;;;3.46;100.00;99292.31;6085324;23;20024;-74
2023/03/07 06:43:00;;;;;;;4.55;4.25;;;;;;;3.41;100.00;99268.34;6058706;23;20184;-73
2023/03/07 06:45:26;;;;;;;4.88;4.47;;;;;;;3.50;100.00;99291.25;6108360;23;20037;-75
2023/03/07 06:47:53;;;;;;;6.85;4.57;;;;;;;3.10;100.00;99228.25;6078818;23;20018;-73
2023/03/07 06:50:19;;;;;;;4.15;3.92;;;;;;;3.29;100.00;99250.78;6107746;23;20077;-74
2023/03/07 06:52:59;;;;;;;5.63;5.22;;;;;;;3.03;100.00;99215.63;6066300;23;20038;-73
2023/03/07 06:55:26;;;;;;;4.40;4.10;;;;;;;3.51;100.00;99274.78;6109536;23;20284;-75
2023/03/07 06:57:52;;;;;;;5.55;5.15;;;;;;;3.53;100.00;99272.97;6078130;23;20362;-75
2023/03/07 07:00:19;;;;;;;4.82;4.10;;;;;;;3.56;100.00;99284.94;6111032;23;20025;-73
2023/03/07 07:02:45;;;;;;;3.58;3.30;;;;;;;3.60;100.00;99273.53;6032712;23;20045;-75
2023/03/07 07:05:12;;;;;;;5.82;5.32;;;;;;;2.53;100.00;99108.22;6105552;23;20057;-73
2023/03/07 07:07:38;;;;;;;4.35;4.15;;;;;;;3.55;100.00;99262.53;6066437;23;20045;-73
2023/03/07 07:10:05;;;;;;;6.00;4.85;;;;;;;3.26;100.00;99214.59;6107682;23;20113;-73
2023/03/07 07:12:31;;;;;;;4.97;4.60;;;;;;;3.19;100.00;99198.50;6057185;23;20026;-72
2023/03/07 07:15:01;;;;;;;5.22;4.93;;;;;;;3.30;100.00;99210.94;6083098;23;20221;-76
2023/03/07 07:17:28;;;;;;;4.15;3.83;;;;;;;3.28;100.00;99226.56;6062056;23;20469;-75
2023/03/07 07:19:54;;;;;;;5.45;5.15;;;;;;;3.53;100.00;99262.59;6104906;23;20025;-74
2023/03/07 07:22:21;;;;;;;6.07;5.47;;;;;;;3.68;100.00;99262.78;6075626;23;20021;-74
2023/03/07 07:24:48;;;;;;;5.30;4.88;;;;;;;3.28;100.00;99202.41;6026786;23;20092;-73
2023/03/07 07:27:15;;;;;;;5.30;4.80;;;;;;;3.50;100.00;99246.34;6082037;23;20025;-72
2023/03/07 07:29:41;;;;;;;4.40;4.10;;;;;;;3.70;100.00;99266.97;6079900;23;20215;-73
2023/03/07 07:32:07;;;;;;;6.70;6.13;;;;;;;3.68;100.00;99247.22;6105335;23;20092;-75
2023/03/07 07:34:34;;;;;;;3.97;3.78;;;;;;;3.76;100.00;99263.25;6038263;23;20501;-75
2023/03/07 07:37:01;;;;;;;6.70;4.95;;;;;;;3.44;100.00;99221.50;6105374;23;20032;-73
2023/03/07 07:39:27;;;;;;;4.97;4.68;;;;;;;3.74;100.00;99268.53;6053826;23;20042;-73
2023/03/07 07:41:53;;;;;;;5.25;4.88;;;;;;;3.30;100.00;99190.22;6105911;23;20066;-75
2023/03/07 07:44:20;;;;;;;4.53;4.18;;;;;;;3.37;100.00;99212.34;6079242;23;20233;-72
2023/03/07 07:46:46;;;;;;;5.90;5.40;;;;;;;3.76;100.00;99248.53;6088490;23;20559;-74
2023/03/07 07:49:13;;;;;;;4.93;4.55;;;;;;;3.76;100.00;99252.88;6080775;23;20029;-73
2023/03/07 07:51:39;;;;;;;4.95;4.65;;;;;;;3.70;100.00;99240.22;6078143;23;20150;-73
2023/03/07 07:54:07;;;;;;;4.88;4.45;;;;;;;3.81;100.00;99248.34;6080030;23;20685;-72
2023/03/07 07:56:34;;;;;;;3.95;3.75;;;;;;;3.95;100.00;99258.06;6050630;23;20012;-73
2023/03/07 07:59:00;;;;;;;10.65;4.78;;;;;;;2.83;100.00;99084.38;6081204;23;20029;-74
2023/03/07 08:01:27;;;;;;;5.30;4.80;;;;;;;3.53;100.00;99217.66;6052475;23;20029;-74
2023/03/07 08:03:53;;;;;;;6.03;5.47;;;;;;;3.95;100.00;99251.09;6099265;23;20278;-74
2023/03/07 08:06:22;;;;;;;4.55;4.05;;;;;;;3.66;100.00;99228.28;6078426;23;20014;-74
2023/03/07 08:08:49;;;;;;;7.35;5.32;;;;;;;3.45;100.00;99171.34;6108235;23;20017;-74
2023/03/07 08:11:16;;;;;;;4.57;4.28;;;;;;;3.97;100.00;99272.63;6080879;23;20480;-73
2023/03/07 08:13:43;;;;;;;5.68;5.18;;;;;;;4.11;100.00;99255.53;6105492;23;20558;-73
2023/03/07 08:16:24;;;;;;;5.05;4.63;;;;;;;4.04;100.00;99264.56;6036870;23;20010;-75
2023/03/07 08:18:54;;;;;;;6.93;4.35;;;;;;;3.11;100.00;99113.31;6113569;23;20168;-74
2023/03/07 08:21:22;;;;;;;4.70;4.40;;;;;;;4.10;100.00;99259.06;6075859;23;20178;-74
2023/03/07 08:23:49;;;;;;;4.78;4.40;;;;;;;3.85;100.00;99218.72;6081904;23;20037;-75
2023/03/07 08:26:16;;;;;;;6.53;6.03;;;;;;;3.89;100.00;99251.41;6072382;23;20080;-74
2023/03/07 08:28:43;;;;;;;4.10;3.90;;;;;;;3.98;100.00;99266.50;6105145;23;20033;-75
2023/03/07 08:31:12;;;;;;;5.32;4.88;;;;;;;3.40;100.00;99162.94;6060801;23;20014;-75
2023/03/07 08:33:39;;;;;;;4.97;4.57;;;;;;;3.50;100.00;99182.31;6108513;23;20018;-70
2023/03/07 08:36:06;;;;;;;4.68;4.00;;;;;;;3.30;100.00;99159.09;6026248;23;20014;-75
2023/03/07 08:38:33;;;;;;;4.55;4.25;;;;;;;4.00;100.00;99267.28;6056597;23;20365;-76
2023/03/07 08:41:04;;;;;;;4.78;4.38;;;;;;;4.12;100.00;99265.00;6056071;23;20426;-73
2023/03/07 08:43:32;;;;;;;4.55;4.18;;;;;;;4.17;100.00;99250.91;6081664;23;20026;-70
2023/03/07 08:45:59;;;;;;;4.68;4.28;;;;;;;3.52;100.00;99156.31;6030774;23;20030;-73
2023/03/07 08:48:26;;;;;;;4.85;4.45;;;;;;;4.08;100.00;99232.34;6112982;23;20029;-72
2023/03/07 08:50:53;;;;;;;4.88;4.47;;;;;;;4.06;100.00;99229.81;6064472;23;20406;-74
2023/03/07 08:53:20;;;;;;;4.25;3.95;;;;;;;3.85;100.00;99174.63;6108074;23;20025;-73
2023/03/07 08:55:47;;;;;;;4.18;3.92;;;;;;;2.72;100.00;98997.66;6062690;23;20044;-71
2023/03/07 08:58:13;;;;;;;4.65;4.28;;;;;;;4.00;100.00;99202.38;6106345;23;20017;-74
2023/03/07 09:00:40;;;;;;;4.25;3.95;;;;;;;4.37;100.00;99255.09;6053571;23;20050;-73
2023/03/07 09:03:06;;;;;;;3.92;3.67;;;;;;;4.03;100.00;99214.41;6057194;23;20026;-73
2023/03/07 09:05:36;;;;;;;5.80;5.20;;;;;;;4.34;100.00;99263.03;6044884;23;20941;-70
2023/03/07 09:08:04;;;;;;;4.70;4.38;;;;;;;4.10;100.00;99220.13;6108368;23;20314;-72
2023/03/07 09:10:31;;;;;;;4.63;4.22;;;;;;;4.10;100.00;99217.53;6056432;23;20030;-70
2023/03/07 09:12:58;;;;;;;4.32;4.03;;;;;;;4.39;100.00;99270.63;6085030;23;20549;-71
2023/03/07 09:15:26;;;;;;;4.90;4.55;;;;;;;4.31;100.00;99254.56;6081614;23;20273;-73
2023/03/07 09:17:52;;;;;;;4.68;4.38;;;;;;;4.15;100.00;99241.47;6052638;23;20514;-72
2023/03/07 09:20:19;;;;;;;5.28;4.90;;;;;;;4.29;100.00;99267.63;6059219;23;20025;-74
2023/03/07 09:22:45;;;;;;;4.85;4.55;;;;;;;4.05;100.00;99209.97;6052163;23;20030;-74
2023/03/07 09:25:12;;;;;;;4.50;4.10;;;;;;;4.49;100.00;99273.56;6082272;23;20030;-71
2023/03/07 09:27:44;;;;;;;4.18;3.95;;;;;;;4.63;100.00;99276.34;6109749;23;20200;-73
2023/03/07 09:30:12;;;;;;;4.38;4.15;;;;;;;4.33;100.00;99237.13;6040819;23;20183;-75
2023/03/07 09:32:38;;;;;;;4.30;4.10;;;;;;;4.47;100.00;99265.88;6105365;23;20227;-74
2023/03/07 09:35:09;;;;;;;4.03;3.83;;;;;;;4.39;100.00;99219.50;6056432;23;20018;-73
2023/03/07 09:37:35;;;;;;;5.10;4.78;;;;;;;4.62;100.00;99261.66;6108829;23;20632;-75
2023/03/07 09:40:07;;;;;;;3.83;3.63;;;;;;;4.12;100.00;99189.72;6083043;23;20038;-73
2023/03/07 09:42:56;;;;;;;7.13;4.23;;;;;;;4.40;100.00;99228.13;6054837;23;20041;-75
2023/03/07 09:46:03;;;;;;;4.22;3.92;;;;;;;4.58;100.00;99270.53;6083256;23;20033;-75
2023/03/07 09:48:48;;;;;;;3.65;3.42;;;;;;;4.71;100.00;99273.34;6049521;23;20285;-73
2023/03/07 09:51:22;;;;;;;6.18;5.03;;;;;;;4.68;100.00;99276.09;6083807;23;20145;-74
2023/03/07 09:53:57;;;;;;;3.92;3.78;;;;;;;4.58;100.00;99231.56;6082119;23;20235;-72
2023/03/07 09:56:31;;;;;;;4.95;4.55;;;;;;;4.44;100.00;99236.63;6082174;23;20512;-72
2023/03/07 09:59:21;;;;;;;3.70;3.47;;;;;;;4.36;100.00;99203.22;6048861;23;21386;-74
2023/03/07 10:02:16;;;;;;;5.20;4.70;;;;;;;4.65;100.00;99264.13;6083719;23;20379;-72
2023/03/07 10:05:15;;;;;;;5.45;4.82;;;;;;;4.25;100.00;99205.53;6033637;23;20029;-73
2023/03/07 10:07:41;;;;;;;4.07;3.88;;;;;;;4.56;100.00;99251.56;6078983;23;20014;-72
2023/03/07 10:10:21;;;;;;;4.40;4.20;;;;;;;3.78;100.00;99147.28;6105511;23;20084;-75
2023/03/07 10:13:05;;;;;;;4.65;4.35;;;;;;;4.35;100.00;99241.34;6081927;23;20279;-75
2023/03/07 10:15:49;;;;;;;4.70;4.32;;;;;;;4.57;100.00;99269.69;6054623;23;20014;-74
2023/03/07 10:18:53;;;;;;;6.65;4.15;;;;;;;4.56;100.00;99268.00;6054471;23;20221;-74
2023/03/07 10:21:37;;;;;;;5.22;4.38;;;;;;;4.03;100.00;99192.75;6049736;23;20257;-73
2023/03/07 10:24:18;;;;;;;3.63;3.42;;;;;;;4.36;100.00;99275.94;6083917;23;20022;-72
2023/03/07 10:26:59;;;;;;;7.63;3.90;;;;;;;3.89;100.00;99216.81;6112497;23;20013;-71
2023/03/07 10:29:31;;;;;;;4.43;4.13;;;;;;;4.29;100.00;99314.38;6085994;23;20243;-72
2023/03/07 10:32:21;;;;;;;8.70;5.47;;;;;;;4.21;100.00;99287.94;6113098;23;20593;-74
2023/03/07 10:35:01;;;;;;;3.75;3.55;;;;;;;4.14;100.00;99302.97;6094619;23;20038;-72
2023/03/07 10:37:44;;;;;;;4.50;4.18;;;;;;;3.80;100.00;99301.97;6113158;23;20481;-73
2023/03/07 10:40:28;;;;;;;2.90;2.80;;;;;;;3.23;100.00;99321.88;6089584;23;20420;-72
2023/03/07 10:42:56;;;;;;;3.30;3.10;;;;;;;2.39;100.00;99235.69;6093555;23;20241;-71
2023/03/07 10:45:22;;;;;;;4.15;3.95;;;;;;;2.39;100.00;99261.56;6055552;23;20034;-73
2023/03/07 10:47:49;;;;;;;3.15;3.05;;;;;;;1.90;100.00;99217.81;6080540;23;20273;-72
2023/03/07 10:50:43;;;;;;;2.95;2.85;;;;;;;2.58;100.00;99331.53;6054708;23;20021;-71
2023/03/07 10:53:29;;;;;;;4.72;4.32;;;;;;;2.44;100.00;99305.38;6107392;23;20594;-71
2023/03/07 10:56:15;;;;;;;3.47;3.28;;;;;;;2.60;100.00;99327.97;6048229;23;22210;-72
2023/03/07 10:59:08;;;;;;;3.78;3.47;;;;;;;2.25;100.00;99287.19;6104513;23;20085;-72
2023/03/07 11:01:37;;;;;;;3.97;3.78;;;;;;;2.63;100.00;99339.16;6037627;23;20026;-73
2023/03/07 11:04:20;;;;;;;3.20;3.10;;;;;;;2.54;100.00;99314.44;6103629;23;20631;-74
2023/03/07 11:06:59;;;;;;;3.40;3.20;;;;;;;2.39;100.00;99331.47;6046984;23;20456;-72
2023/03/07 11:09:29;;;;;;;3.08;2.97;;;;;;;2.29;100.00;99331.00;6073899;23;20085;-72
2023/03/07 11:11:59;;;;;;;3.30;3.10;;;;;;;2.47;100.00;99332.00;6079664;23;20053;-70
2023/03/07 11:14:27;;;;;;;3.22;3.13;;;;;;;2.52;100.00;99337.81;6105245;23;20507;-72
2023/03/07 11:16:59;;;;;;;3.03;2.92;;;;;;;2.57;100.00;99333.31;6077729;23;20034;-72
2023/03/07 11:19:41;;;;;;;3.00;2.90;;;;;;;2.17;100.00;99293.50;6073655;23;20564;-74
2023/03/07 11:22:26;;;;;;;2.83;2.72;;;;;;;2.64;100.00;99330.44;6079926;23;20083;-73
2023/03/07 11:25:12;;;;;;;3.08;2.97;;;;;;;2.67;100.00;99332.94;6109487;23;20543;-74
2023/03/07 11:27:49;;;;;;;3.08;2.97;;;;;;;2.31;100.00;99292.94;6057000;23;20110;-74
2023/03/07 11:30:21;;;;;;;3.08;2.97;;;;;;;2.54;100.00;99325.66;6104172;23;20025;-71
2023/03/07 11:33:05;;;;;;;2.92;2.83;;;;;;;2.60;100.00;99345.28;6056256;23;20102;-71
2023/03/07 11:36:02;;;;;;;2.95;2.85;;;;;;;2.52;100.00;99329.22;6106898;23;20113;-72
2023/03/07 11:39:05;;;;;;;2.80;2.70;;;;;;;2.17;100.00;99283.16;6079585;23;20026;-74
2023/03/07 11:41:36;;;;;;;2.85;2.75;;;;;;;2.36;100.00;99323.81;6106790;23;20550;-72
2023/03/07 11:44:35;;;;;;;2.80;2.70;;;;;;;2.36;100.00;99339.34;6052174;23;20026;-71
2023/03/07 11:47:12;;;;;;;3.03;2.92;;;;;;;1.53;100.00;99214.13;6013760;23;20022;-74